KAC152 LTFM-OKKK
Flight info
| Callsign | KAC152 |
|---|---|
| Flight time | N/A |
| Altitude | 39000 |
| Route | VICEN UT57 VEVUD UT341 BAG UW75 KEMER DCT ADKAR DCT TUNLA L601 KTN R655 TAN G202 RAPLU DCT BABIL T315 LOVEK T231 ILMAP P975 SIDAD |
| Aircraft | B772/H-SDE2E3FGHIJ5LORVWXY/LB1D1 |
Departure
| Time | 2026-02-17 13:25 |
|---|---|
| Airport | İstanbul Airport (LTFM) |
Arrival
| Time | N/A |
|---|---|
| Airport | Kuwait International Airport (OKKK) |
| Time | Latitude | Longitude | Altitude | Speed | Heading |
|---|---|---|---|---|---|
| 2026-02-17 12:25 | 41.25900 | 28.73543 | 340 ft | 0 kts | 106° |
| 2026-02-17 13:07 | 41.25901 | 28.73541 | 340 ft | 1 kts | 106° |
| 2026-02-17 13:08 | 41.25905 | 28.73522 | 340 ft | 2 kts | 106° |
| 2026-02-17 13:08 | 41.25909 | 28.73503 | 340 ft | 2 kts | 106° |
| 2026-02-17 13:08 | 41.25913 | 28.73483 | 340 ft | 2 kts | 106° |
| 2026-02-17 13:08 | 41.25917 | 28.73464 | 340 ft | 2 kts | 106° |
| 2026-02-17 13:09 | 41.25920 | 28.73452 | 340 ft | 2 kts | 102° |
| 2026-02-17 13:09 | 41.25920 | 28.73432 | 340 ft | 2 kts | 71° |
| 2026-02-17 13:09 | 41.25913 | 28.73415 | 340 ft | 2 kts | 46° |
| 2026-02-17 13:09 | 41.25901 | 28.73403 | 340 ft | 1 kts | 21° |
| 2026-02-17 13:10 | 41.25895 | 28.73400 | 340 ft | 0 kts | 16° |
| 2026-02-17 13:12 | 41.25899 | 28.73401 | 340 ft | 0 kts | 9° |
| 2026-02-17 13:12 | 41.25903 | 28.73400 | 340 ft | 1 kts | 347° |
| 2026-02-17 13:12 | 41.25908 | 28.73389 | 340 ft | 1 kts | 280° |
| 2026-02-17 13:13 | 41.25907 | 28.73334 | 340 ft | 10 kts | 268° |
| 2026-02-17 13:13 | 41.25906 | 28.73215 | 340 ft | 11 kts | 269° |
| 2026-02-17 13:13 | 41.25909 | 28.73148 | 340 ft | 6 kts | 294° |
| 2026-02-17 13:13 | 41.25955 | 28.73120 | 340 ft | 8 kts | 354° |
| 2026-02-17 13:14 | 41.26040 | 28.73117 | 340 ft | 15 kts | 360° |
| 2026-02-17 13:14 | 41.26147 | 28.73117 | 340 ft | 12 kts | 360° |
| 2026-02-17 13:14 | 41.26214 | 28.73076 | 340 ft | 11 kts | 295° |
| 2026-02-17 13:15 | 41.26215 | 28.72764 | 340 ft | 24 kts | 269° |
| 2026-02-17 13:15 | 41.26213 | 28.72534 | 340 ft | 24 kts | 269° |
| 2026-02-17 13:15 | 41.26210 | 28.72359 | 340 ft | 12 kts | 272° |
| 2026-02-17 13:15 | 41.26249 | 28.72300 | 340 ft | 8 kts | 348° |
| 2026-02-17 13:16 | 41.26321 | 28.72298 | 340 ft | 12 kts | 359° |
| 2026-02-17 13:16 | 41.26431 | 28.72295 | 340 ft | 18 kts | 360° |
| 2026-02-17 13:16 | 41.26575 | 28.72294 | 340 ft | 23 kts | 360° |
| 2026-02-17 13:16 | 41.26752 | 28.72284 | 340 ft | 27 kts | 357° |
| 2026-02-17 13:17 | 41.26947 | 28.72284 | 340 ft | 28 kts | 359° |
| 2026-02-17 13:17 | 41.27145 | 28.72281 | 340 ft | 28 kts | 359° |
| 2026-02-17 13:17 | 41.27339 | 28.72277 | 340 ft | 27 kts | 359° |
| 2026-02-17 13:17 | 41.27532 | 28.72272 | 340 ft | 27 kts | 359° |
| 2026-02-17 13:18 | 41.27721 | 28.72268 | 340 ft | 27 kts | 360° |
| 2026-02-17 13:18 | 41.27911 | 28.72266 | 340 ft | 27 kts | 360° |
| 2026-02-17 13:18 | 41.28100 | 28.72264 | 340 ft | 26 kts | 359° |
| 2026-02-17 13:19 | 41.28481 | 28.72256 | 340 ft | 29 kts | 359° |
| 2026-02-17 13:19 | 41.28693 | 28.72251 | 340 ft | 31 kts | 359° |
| 2026-02-17 13:19 | 41.28901 | 28.72245 | 340 ft | 28 kts | 359° |
| 2026-02-17 13:19 | 41.29097 | 28.72240 | 340 ft | 28 kts | 359° |
| 2026-02-17 13:20 | 41.29285 | 28.72234 | 340 ft | 23 kts | 359° |
| 2026-02-17 13:20 | 41.29430 | 28.72233 | 340 ft | 13 kts | 360° |
| 2026-02-17 13:20 | 41.29476 | 28.72241 | 340 ft | 5 kts | 36° |
| 2026-02-17 13:20 | 41.29488 | 28.72294 | 340 ft | 7 kts | 85° |
| 2026-02-17 13:21 | 41.29490 | 28.72379 | 340 ft | 9 kts | 89° |
| 2026-02-17 13:21 | 41.29477 | 28.72444 | 340 ft | 7 kts | 136° |
| 2026-02-17 13:21 | 41.29427 | 28.72459 | 340 ft | 3 kts | 179° |
| 2026-02-17 13:21 | 41.29424 | 28.72460 | 340 ft | 0 kts | 179° |
| 2026-02-17 13:24 | 41.29373 | 28.72461 | 340 ft | 32 kts | 179° |
| 2026-02-17 13:25 | 41.28825 | 28.72472 | 340 ft | 124 kts | 179° |
| 2026-02-17 13:25 | 41.27717 | 28.72494 | 568 ft | 180 kts | 179° |
| 2026-02-17 13:25 | 41.26546 | 28.72511 | 1702 ft | 171 kts | 180° |
| 2026-02-17 13:25 | 41.25358 | 28.72563 | 2232 ft | 180 kts | 178° |
| 2026-02-17 13:26 | 41.24060 | 28.72633 | 2685 ft | 192 kts | 178° |
| 2026-02-17 13:26 | 41.22687 | 28.72696 | 3106 ft | 206 kts | 178° |
| 2026-02-17 13:26 | 41.21209 | 28.72776 | 3495 ft | 219 kts | 178° |
| 2026-02-17 13:27 | 41.17933 | 28.72454 | 4054 ft | 263 kts | 205° |
| 2026-02-17 13:27 | 41.16444 | 28.71016 | 4795 ft | 267 kts | 223° |
| 2026-02-17 13:27 | 41.15121 | 28.69289 | 5520 ft | 271 kts | 223° |
| 2026-02-17 13:27 | 41.13781 | 28.67601 | 6499 ft | 264 kts | 221° |
| 2026-02-17 13:28 | 41.12299 | 28.66185 | 7118 ft | 269 kts | 204° |
| 2026-02-17 13:28 | 41.10491 | 28.65649 | 7891 ft | 270 kts | 181° |
| 2026-02-17 13:28 | 41.08634 | 28.66011 | 8539 ft | 275 kts | 171° |
| 2026-02-17 13:28 | 41.06755 | 28.66480 | 9176 ft | 280 kts | 173° |
| 2026-02-17 13:29 | 41.04837 | 28.66853 | 9915 ft | 280 kts | 175° |
| 2026-02-17 13:29 | 41.02895 | 28.67197 | 10422 ft | 289 kts | 176° |
| 2026-02-17 13:29 | 41.00844 | 28.67566 | 10651 ft | 307 kts | 173° |
| 2026-02-17 13:29 | 40.98700 | 28.68405 | 10779 ft | 331 kts | 156° |
| 2026-02-17 13:30 | 40.96834 | 28.70325 | 10859 ft | 358 kts | 133° |
| 2026-02-17 13:30 | 40.95579 | 28.73252 | 11053 ft | 377 kts | 114° |
| 2026-02-17 13:30 | 40.94870 | 28.76619 | 11693 ft | 378 kts | 106° |
| 2026-02-17 13:31 | 40.93693 | 28.83243 | 13438 ft | 366 kts | 105° |
| 2026-02-17 13:31 | 40.93120 | 28.86469 | 14210 ft | 363 kts | 105° |
| 2026-02-17 13:31 | 40.92541 | 28.89720 | 14830 ft | 365 kts | 105° |
| 2026-02-17 13:31 | 40.91953 | 28.93014 | 15417 ft | 369 kts | 105° |
| 2026-02-17 13:32 | 40.91363 | 28.96311 | 15999 ft | 371 kts | 105° |
| 2026-02-17 13:32 | 40.90766 | 28.99645 | 16576 ft | 374 kts | 105° |
| 2026-02-17 13:32 | 40.90167 | 29.02979 | 17148 ft | 377 kts | 105° |
| 2026-02-17 13:32 | 40.89558 | 29.06367 | 17722 ft | 380 kts | 105° |
| 2026-02-17 13:33 | 40.88943 | 29.09782 | 18297 ft | 382 kts | 106° |
| 2026-02-17 13:33 | 40.88322 | 29.13222 | 18859 ft | 385 kts | 106° |
| 2026-02-17 13:33 | 40.87704 | 29.16645 | 19413 ft | 388 kts | 107° |
| 2026-02-17 13:33 | 40.87080 | 29.20086 | 19973 ft | 390 kts | 107° |
| 2026-02-17 13:34 | 40.86445 | 29.23587 | 20544 ft | 392 kts | 108° |
| 2026-02-17 13:34 | 40.85805 | 29.27112 | 21117 ft | 394 kts | 108° |
| 2026-02-17 13:34 | 40.85169 | 29.30601 | 21686 ft | 396 kts | 108° |
| 2026-02-17 13:35 | 40.83878 | 29.37676 | 22840 ft | 398 kts | 109° |
| 2026-02-17 13:35 | 40.83227 | 29.41229 | 23425 ft | 399 kts | 110° |
| 2026-02-17 13:35 | 40.82576 | 29.44780 | 23999 ft | 400 kts | 110° |
| 2026-02-17 13:35 | 40.81921 | 29.48342 | 24532 ft | 402 kts | 110° |
| 2026-02-17 13:36 | 40.81253 | 29.51961 | 24952 ft | 407 kts | 110° |
| 2026-02-17 13:36 | 40.80587 | 29.55569 | 25372 ft | 411 kts | 110° |
| 2026-02-17 13:36 | 40.79900 | 29.59280 | 25846 ft | 414 kts | 110° |
| 2026-02-17 13:36 | 40.79217 | 29.62966 | 26305 ft | 417 kts | 109° |
| 2026-02-17 13:37 | 40.78525 | 29.66689 | 26738 ft | 421 kts | 110° |
| 2026-02-17 13:37 | 40.77819 | 29.70488 | 27180 ft | 424 kts | 110° |
| 2026-02-17 13:37 | 40.77113 | 29.74275 | 27603 ft | 427 kts | 109° |
| 2026-02-17 13:37 | 40.76411 | 29.78036 | 28015 ft | 430 kts | 109° |
| 2026-02-17 13:38 | 40.75690 | 29.81892 | 28421 ft | 434 kts | 109° |
| 2026-02-17 13:38 | 40.74963 | 29.85772 | 28820 ft | 437 kts | 109° |
| 2026-02-17 13:38 | 40.74230 | 29.89676 | 29214 ft | 440 kts | 109° |
| 2026-02-17 13:39 | 40.72749 | 29.97547 | 29973 ft | 446 kts | 108° |
| 2026-02-17 13:39 | 40.71999 | 30.01521 | 30330 ft | 449 kts | 108° |
| 2026-02-17 13:39 | 40.71250 | 30.05484 | 30647 ft | 453 kts | 109° |
| 2026-02-17 13:39 | 40.70484 | 30.09524 | 30959 ft | 457 kts | 109° |
| 2026-02-17 13:40 | 40.69712 | 30.13595 | 31274 ft | 461 kts | 109° |
| 2026-02-17 13:40 | 40.68935 | 30.17681 | 31585 ft | 464 kts | 109° |
| 2026-02-17 13:40 | 40.68143 | 30.21842 | 31901 ft | 468 kts | 109° |
| 2026-02-17 13:40 | 40.67302 | 30.25997 | 32189 ft | 469 kts | 113° |
| 2026-02-17 13:41 | 40.66082 | 30.29902 | 32456 ft | 467 kts | 122° |
| 2026-02-17 13:41 | 40.64393 | 30.33550 | 32748 ft | 464 kts | 130° |
| 2026-02-17 13:41 | 40.62465 | 30.36956 | 33066 ft | 466 kts | 132° |
| 2026-02-17 13:41 | 40.60498 | 30.40345 | 33371 ft | 469 kts | 132° |
| 2026-02-17 13:42 | 40.58497 | 30.43774 | 33658 ft | 472 kts | 132° |
| 2026-02-17 13:42 | 40.56507 | 30.47174 | 33934 ft | 476 kts | 132° |
| 2026-02-17 13:42 | 40.54646 | 30.50833 | 34196 ft | 485 kts | 124° |
| 2026-02-17 13:43 | 40.52191 | 30.59217 | 34773 ft | 502 kts | 108° |
| 2026-02-17 13:43 | 40.51392 | 30.63662 | 35163 ft | 503 kts | 108° |
| 2026-02-17 13:43 | 40.50602 | 30.68152 | 35582 ft | 502 kts | 109° |
| 2026-02-17 13:43 | 40.49817 | 30.72597 | 35902 ft | 502 kts | 109° |
| 2026-02-17 13:44 | 40.48969 | 30.77006 | 36159 ft | 501 kts | 112° |
| 2026-02-17 13:44 | 40.47925 | 30.81403 | 36418 ft | 501 kts | 114° |
| 2026-02-17 13:44 | 40.46878 | 30.85721 | 36669 ft | 502 kts | 114° |
| 2026-02-17 13:44 | 40.45825 | 30.90072 | 36911 ft | 503 kts | 113° |
| 2026-02-17 13:45 | 40.44759 | 30.94493 | 37142 ft | 504 kts | 113° |
| 2026-02-17 13:45 | 40.43720 | 30.98810 | 37363 ft | 505 kts | 113° |
| 2026-02-17 13:45 | 40.42657 | 31.03231 | 37576 ft | 505 kts | 113° |
| 2026-02-17 13:45 | 40.41597 | 31.07644 | 37772 ft | 506 kts | 113° |
| 2026-02-17 13:46 | 40.40548 | 31.12007 | 37959 ft | 507 kts | 113° |
| 2026-02-17 13:46 | 40.39484 | 31.16429 | 38144 ft | 508 kts | 113° |
| 2026-02-17 13:46 | 40.38422 | 31.20843 | 38319 ft | 509 kts | 112° |
| 2026-02-17 13:47 | 40.36809 | 31.29963 | 38628 ft | 515 kts | 107° |
| 2026-02-17 13:47 | 40.36073 | 31.34532 | 38777 ft | 516 kts | 107° |
| 2026-02-17 13:47 | 40.34580 | 31.43743 | 38883 ft | 519 kts | 107° |
| 2026-02-17 13:48 | 40.33069 | 31.52994 | 38883 ft | 523 kts | 107° |
| 2026-02-17 13:48 | 40.31542 | 31.62287 | 38886 ft | 523 kts | 108° |
| 2026-02-17 13:49 | 40.30000 | 31.71620 | 38891 ft | 523 kts | 108° |
| 2026-02-17 13:49 | 40.28456 | 31.80902 | 38893 ft | 524 kts | 108° |
| 2026-02-17 13:50 | 40.26901 | 31.90202 | 38895 ft | 524 kts | 108° |
| 2026-02-17 13:51 | 40.24070 | 32.03969 | 38900 ft | 522 kts | 112° |
| 2026-02-17 13:51 | 40.22059 | 32.13068 | 38900 ft | 522 kts | 112° |
| 2026-02-17 13:52 | 40.20060 | 32.22145 | 38900 ft | 523 kts | 112° |
| 2026-02-17 13:52 | 40.18044 | 32.31302 | 38900 ft | 523 kts | 112° |
| 2026-02-17 13:53 | 40.16038 | 32.40393 | 38898 ft | 524 kts | 112° |
| 2026-02-17 13:53 | 40.14001 | 32.49599 | 38921 ft | 525 kts | 112° |
| 2026-02-17 13:54 | 40.11983 | 32.58689 | 38923 ft | 525 kts | 112° |
| 2026-02-17 13:54 | 40.09935 | 32.67876 | 38914 ft | 525 kts | 113° |
| 2026-02-17 13:55 | 40.07106 | 32.76432 | 38914 ft | 508 kts | 130° |
| 2026-02-17 13:55 | 40.05043 | 32.80143 | 38913 ft | 498 kts | 139° |
| 2026-02-17 13:55 | 40.02645 | 32.83324 | 38896 ft | 487 kts | 148° |
| 2026-02-17 13:55 | 39.99990 | 32.85982 | 38898 ft | 479 kts | 154° |
| 2026-02-17 13:56 | 39.94522 | 32.90824 | 38912 ft | 478 kts | 155° |
| 2026-02-17 13:56 | 39.88965 | 32.95564 | 38918 ft | 477 kts | 156° |
| 2026-02-17 13:57 | 39.83426 | 33.00190 | 38924 ft | 476 kts | 156° |
| 2026-02-17 13:57 | 39.77839 | 33.04800 | 38902 ft | 475 kts | 156° |
| 2026-02-17 13:58 | 39.72250 | 33.09375 | 38903 ft | 477 kts | 155° |
| 2026-02-17 13:59 | 39.63868 | 33.16201 | 38901 ft | 477 kts | 156° |
| 2026-02-17 13:59 | 39.58231 | 33.20772 | 38905 ft | 476 kts | 156° |
| 2026-02-17 14:00 | 39.52645 | 33.25290 | 38903 ft | 476 kts | 156° |
| 2026-02-17 14:00 | 39.47032 | 33.29820 | 38904 ft | 476 kts | 156° |
| 2026-02-17 14:01 | 39.41401 | 33.34225 | 38903 ft | 471 kts | 160° |
| 2026-02-17 14:01 | 39.35605 | 33.38197 | 38907 ft | 474 kts | 158° |
| 2026-02-17 14:02 | 39.29961 | 33.42542 | 38904 ft | 475 kts | 157° |
| 2026-02-17 14:02 | 39.24295 | 33.46909 | 38904 ft | 475 kts | 157° |
| 2026-02-17 14:03 | 39.15836 | 33.53508 | 38949 ft | 475 kts | 157° |
| 2026-02-17 14:03 | 39.10229 | 33.57912 | 38964 ft | 476 kts | 157° |
| 2026-02-17 14:04 | 39.04584 | 33.62333 | 38962 ft | 476 kts | 157° |
| 2026-02-17 14:04 | 38.98937 | 33.66746 | 38951 ft | 475 kts | 158° |
| 2026-02-17 14:05 | 38.93310 | 33.71133 | 38952 ft | 475 kts | 158° |
| 2026-02-17 14:05 | 38.87657 | 33.75532 | 38965 ft | 475 kts | 158° |
| 2026-02-17 14:06 | 38.82032 | 33.79900 | 38964 ft | 474 kts | 158° |
| 2026-02-17 14:07 | 38.73580 | 33.86449 | 38962 ft | 474 kts | 158° |
| 2026-02-17 14:07 | 38.67936 | 33.90812 | 38961 ft | 474 kts | 158° |
| 2026-02-17 14:08 | 38.62300 | 33.95159 | 38963 ft | 474 kts | 158° |
| 2026-02-17 14:08 | 38.56654 | 33.99507 | 38962 ft | 474 kts | 158° |
| 2026-02-17 14:09 | 38.51038 | 34.03822 | 38961 ft | 474 kts | 159° |
| 2026-02-17 14:09 | 38.45367 | 34.08138 | 38962 ft | 473 kts | 159° |
| 2026-02-17 14:10 | 38.39741 | 34.12410 | 38960 ft | 473 kts | 159° |
| 2026-02-17 14:10 | 38.34074 | 34.16706 | 38964 ft | 473 kts | 159° |
| 2026-02-17 14:11 | 38.25620 | 34.23102 | 38961 ft | 473 kts | 159° |
| 2026-02-17 14:11 | 38.19991 | 34.27351 | 38963 ft | 473 kts | 159° |
| 2026-02-17 14:12 | 38.14353 | 34.31599 | 38961 ft | 473 kts | 159° |
| 2026-02-17 14:12 | 38.08725 | 34.35832 | 38961 ft | 473 kts | 159° |
| 2026-02-17 14:13 | 38.03092 | 34.40061 | 38962 ft | 473 kts | 159° |
| 2026-02-17 14:13 | 37.97441 | 34.44296 | 38963 ft | 472 kts | 159° |
| 2026-02-17 14:14 | 37.91806 | 34.48511 | 38960 ft | 472 kts | 159° |
| 2026-02-17 14:15 | 37.83365 | 34.54904 | 38978 ft | 473 kts | 159° |
| 2026-02-17 14:15 | 37.77741 | 34.59190 | 38977 ft | 473 kts | 159° |
| 2026-02-17 14:16 | 37.72134 | 34.63452 | 39026 ft | 472 kts | 159° |
| 2026-02-17 14:16 | 37.66515 | 34.67714 | 39042 ft | 471 kts | 160° |
| 2026-02-17 14:17 | 37.60903 | 34.71957 | 39040 ft | 470 kts | 161° |
| 2026-02-17 14:17 | 37.55129 | 34.75523 | 39041 ft | 462 kts | 166° |
| 2026-02-17 14:18 | 37.49308 | 34.78947 | 39043 ft | 462 kts | 166° |
| 2026-02-17 14:18 | 37.43524 | 34.82347 | 39040 ft | 462 kts | 166° |
| 2026-02-17 14:19 | 37.34797 | 34.87468 | 39037 ft | 461 kts | 166° |
| 2026-02-17 14:19 | 37.29003 | 34.90863 | 39038 ft | 461 kts | 166° |
| 2026-02-17 14:20 | 37.23248 | 34.94228 | 39041 ft | 461 kts | 166° |
| 2026-02-17 14:20 | 37.17439 | 34.97621 | 39039 ft | 461 kts | 166° |
| 2026-02-17 14:21 | 37.11655 | 35.00992 | 39037 ft | 461 kts | 166° |
| 2026-02-17 14:21 | 37.05833 | 35.04380 | 39036 ft | 461 kts | 166° |
| 2026-02-17 14:22 | 36.97177 | 35.09406 | 39037 ft | 460 kts | 166° |
| 2026-02-17 14:23 | 36.88491 | 35.14438 | 39050 ft | 460 kts | 166° |
| 2026-02-17 14:23 | 36.82689 | 35.17791 | 39055 ft | 460 kts | 166° |
| 2026-02-17 14:24 | 36.77064 | 35.21781 | 39055 ft | 479 kts | 155° |
| 2026-02-17 14:24 | 36.71708 | 35.26766 | 39053 ft | 481 kts | 155° |
| 2026-02-17 14:25 | 36.66370 | 35.31746 | 39055 ft | 481 kts | 155° |
| 2026-02-17 14:25 | 36.61045 | 35.36697 | 39053 ft | 481 kts | 155° |
| 2026-02-17 14:26 | 36.55708 | 35.41647 | 39046 ft | 481 kts | 155° |
| 2026-02-17 14:27 | 36.47681 | 35.49071 | 39032 ft | 481 kts | 155° |
| 2026-02-17 14:27 | 36.42320 | 35.54016 | 39032 ft | 481 kts | 155° |
| 2026-02-17 14:28 | 36.36980 | 35.58934 | 39059 ft | 480 kts | 155° |
| 2026-02-17 14:28 | 36.31606 | 35.63873 | 39075 ft | 481 kts | 155° |
| 2026-02-17 14:29 | 36.26259 | 35.68780 | 39057 ft | 479 kts | 156° |
| 2026-02-17 14:29 | 36.20900 | 35.73688 | 39055 ft | 479 kts | 156° |
| 2026-02-17 14:30 | 36.15583 | 35.78548 | 39054 ft | 479 kts | 156° |
| 2026-02-17 14:31 | 36.04852 | 35.88335 | 39051 ft | 479 kts | 156° |
| 2026-02-17 14:31 | 35.99515 | 35.93189 | 39052 ft | 479 kts | 156° |
| 2026-02-17 14:32 | 35.94168 | 35.98044 | 39052 ft | 479 kts | 156° |
| 2026-02-17 14:32 | 35.88817 | 36.02873 | 39064 ft | 475 kts | 159° |
| 2026-02-17 14:33 | 35.83209 | 36.07035 | 39074 ft | 468 kts | 162° |
| 2026-02-17 14:33 | 35.74812 | 36.13066 | 39140 ft | 467 kts | 162° |
| 2026-02-17 14:34 | 35.69217 | 36.17077 | 39236 ft | 468 kts | 162° |
| 2026-02-17 14:35 | 35.60827 | 36.23084 | 39235 ft | 467 kts | 162° |
| 2026-02-17 14:35 | 35.55219 | 36.27091 | 39234 ft | 467 kts | 162° |
| 2026-02-17 14:36 | 35.49597 | 36.31101 | 39234 ft | 467 kts | 162° |
| 2026-02-17 14:36 | 35.44056 | 36.35250 | 39235 ft | 470 kts | 161° |
| 2026-02-17 14:37 | 35.38531 | 36.39442 | 39234 ft | 470 kts | 161° |
| 2026-02-17 14:37 | 35.32990 | 36.43631 | 39238 ft | 470 kts | 161° |
| 2026-02-17 14:38 | 35.27454 | 36.47803 | 39239 ft | 469 kts | 161° |
| 2026-02-17 14:38 | 35.21880 | 36.51996 | 39234 ft | 469 kts | 161° |